createdAt,value
2023-05-06T00:00:22.696Z,9.50
2023-05-06T00:02:49.786Z,9.50
2023-05-06T00:05:18.608Z,9.50
2023-05-06T00:07:48.971Z,9.50
2023-05-06T00:10:17.060Z,9.50
2023-05-06T00:12:44.177Z,9.40
2023-05-06T00:15:11.875Z,9.40
2023-05-06T00:17:39.192Z,9.50
2023-05-06T00:20:07.206Z,9.50
2023-05-06T00:22:34.232Z,9.50
2023-05-06T00:25:01.335Z,9.50
2023-05-06T00:27:28.406Z,9.50
2023-05-06T00:29:55.435Z,9.50
2023-05-06T00:32:22.474Z,9.50
2023-05-06T00:34:49.481Z,9.50
2023-05-06T00:37:16.540Z,9.50
2023-05-06T00:39:43.588Z,9.50
2023-05-06T00:42:10.653Z,9.60
2023-05-06T00:44:37.774Z,9.60
2023-05-06T00:47:05.342Z,9.50
2023-05-06T00:49:32.411Z,9.50
2023-05-06T00:52:00.275Z,9.60
2023-05-06T00:54:27.768Z,9.50
2023-05-06T00:56:55.234Z,9.60
2023-05-06T00:59:23.223Z,9.60
2023-05-06T01:01:52.313Z,9.60
2023-05-06T01:04:20.014Z,9.60
2023-05-06T01:07:34.323Z,9.60
2023-05-06T01:10:30.336Z,9.60
2023-05-06T01:13:21.512Z,9.60
2023-05-06T01:15:54.101Z,9.60
2023-05-06T01:18:26.793Z,9.60
2023-05-06T01:20:56.043Z,9.60
2023-05-06T01:23:23.161Z,9.60
2023-05-06T01:25:51.237Z,9.60
2023-05-06T01:28:18.336Z,9.60
2023-05-06T01:31:12.009Z,9.60
2023-05-06T01:34:13.867Z,9.60
2023-05-06T01:36:50.670Z,9.70
2023-05-06T01:39:26.961Z,9.60
2023-05-06T01:41:57.389Z,9.70
2023-05-06T01:44:27.686Z,9.70
2023-05-06T01:46:56.302Z,9.70
2023-05-06T01:49:25.345Z,9.70
2023-05-06T01:51:53.424Z,9.70
2023-05-06T01:54:20.490Z,9.70
2023-05-06T01:56:47.596Z,9.70
2023-05-06T01:59:15.435Z,9.70
2023-05-06T02:01:42.559Z,9.70
2023-05-06T02:04:09.593Z,9.70
2023-05-06T02:06:36.711Z,9.70
2023-05-06T02:09:04.698Z,9.70
2023-05-06T02:11:35.349Z,9.70
2023-05-06T02:14:05.402Z,9.70
2023-05-06T02:16:34.119Z,9.70
2023-05-06T02:19:01.220Z,9.70
2023-05-06T02:21:28.520Z,9.70
2023-05-06T02:23:55.515Z,9.70
2023-05-06T02:26:22.578Z,9.70
2023-05-06T02:28:49.554Z,9.70
2023-05-06T02:31:16.753Z,9.60
2023-05-06T02:33:46.682Z,9.60
2023-05-06T02:36:13.707Z,9.60
2023-05-06T02:38:40.929Z,9.60
2023-05-06T02:41:08.005Z,9.70
2023-05-06T02:43:34.998Z,9.70
2023-05-06T02:46:02.150Z,9.70
2023-05-06T02:48:29.458Z,9.70
2023-05-06T02:50:57.256Z,9.70
2023-05-06T02:53:24.233Z,9.70
2023-05-06T02:55:51.258Z,9.60
2023-05-06T02:58:18.280Z,9.60
2023-05-06T03:00:45.422Z,9.60
2023-05-06T03:03:12.488Z,9.70
2023-05-06T03:05:39.584Z,9.70
2023-05-06T03:08:06.705Z,9.70
2023-05-06T03:10:35.468Z,9.70
2023-05-06T03:13:02.916Z,9.70
2023-05-06T03:15:30.055Z,9.70
2023-05-06T03:17:57.140Z,9.60
2023-05-06T03:20:25.356Z,9.60
2023-05-06T03:22:56.510Z,9.60
2023-05-06T03:25:24.411Z,9.60
2023-05-06T03:27:51.991Z,9.60
2023-05-06T03:30:22.081Z,9.60
2023-05-06T03:32:51.177Z,9.60
2023-05-06T03:35:25.363Z,9.60
2023-05-06T03:37:55.999Z,9.50
2023-05-06T03:40:25.642Z,9.50
2023-05-06T03:42:53.738Z,9.50
2023-05-06T03:45:22.306Z,9.50
2023-05-06T03:47:49.374Z,9.50
2023-05-06T03:50:17.131Z,9.50
2023-05-06T03:52:44.435Z,9.50
2023-05-06T03:55:11.884Z,9.50
2023-05-06T03:57:39.533Z,9.50
2023-05-06T04:00:07.936Z,9.50
2023-05-06T04:02:43.631Z,9.50
2023-05-06T04:05:18.108Z,9.50
2023-05-06T04:07:46.030Z,9.50
2023-05-06T04:10:13.214Z,9.50
2023-05-06T04:12:42.871Z,9.50
2023-05-06T04:15:12.051Z,9.50
2023-05-06T04:17:39.619Z,9.50
2023-05-06T04:20:07.391Z,9.50
2023-05-06T04:22:34.895Z,9.50
2023-05-06T04:25:02.153Z,9.50
2023-05-06T04:27:32.124Z,9.50
2023-05-06T04:30:00.676Z,9.50
2023-05-06T04:32:28.799Z,9.50
2023-05-06T04:34:56.869Z,9.50
2023-05-06T04:37:25.218Z,9.50
2023-05-06T04:39:59.446Z,9.50
2023-05-06T04:42:27.015Z,9.50
2023-05-06T04:45:05.761Z,9.50
2023-05-06T04:47:35.012Z,9.50
2023-05-06T04:50:04.491Z,9.50
2023-05-06T04:52:32.223Z,9.50
2023-05-06T04:54:59.476Z,9.50
2023-05-06T04:57:26.650Z,9.50
2023-05-06T04:59:55.219Z,9.50
2023-05-06T05:02:22.459Z,9.50
2023-05-06T05:04:50.540Z,9.50
2023-05-06T05:07:17.812Z,9.50
2023-05-06T05:09:45.555Z,9.40
2023-05-06T05:12:12.975Z,9.50
2023-05-06T05:14:43.505Z,9.50
2023-05-06T05:17:12.337Z,9.50
2023-05-06T05:19:40.082Z,9.50
2023-05-06T05:22:07.934Z,9.50
2023-05-06T05:24:34.924Z,9.50
2023-05-06T05:27:02.271Z,9.50
2023-05-06T05:29:30.481Z,9.50
2023-05-06T05:31:59.130Z,9.50
2023-05-06T05:34:26.179Z,9.50
2023-05-06T05:36:53.478Z,9.50
2023-05-06T05:39:21.119Z,9.50
2023-05-06T05:41:49.038Z,9.60
2023-05-06T05:44:16.483Z,9.60
2023-05-06T05:46:43.835Z,9.60
2023-05-06T05:49:14.335Z,9.60
2023-05-06T05:51:42.033Z,9.60
2023-05-06T05:54:11.243Z,9.60
2023-05-06T05:56:40.787Z,9.60
2023-05-06T05:59:08.100Z,9.60
2023-05-06T06:01:35.836Z,9.60
2023-05-06T06:04:03.899Z,9.70
2023-05-06T06:06:31.620Z,9.60
2023-05-06T06:08:59.007Z,9.70
2023-05-06T06:11:28.584Z,9.70
2023-05-06T06:13:55.784Z,9.70
2023-05-06T06:16:23.235Z,9.70
2023-05-06T06:18:50.588Z,9.70
2023-05-06T06:21:18.381Z,9.70
2023-05-06T06:23:46.229Z,9.70
2023-05-06T06:26:13.751Z,9.70
2023-05-06T06:28:40.806Z,9.70
2023-05-06T06:31:08.026Z,9.70
2023-05-06T06:33:34.987Z,9.70
2023-05-06T06:36:02.236Z,9.70
2023-05-06T06:38:29.227Z,9.70
2023-05-06T06:40:56.320Z,9.60
2023-05-06T06:43:24.823Z,9.60
2023-05-06T06:45:58.578Z,9.70
2023-05-06T06:48:25.699Z,9.70
2023-05-06T06:50:52.660Z,9.70
2023-05-06T06:53:20.016Z,9.70
2023-05-06T06:55:47.180Z,9.70
2023-05-06T06:58:14.308Z,9.80
2023-05-06T07:00:41.363Z,9.80
2023-05-06T07:03:08.463Z,9.80
2023-05-06T07:05:35.746Z,9.80
2023-05-06T07:08:02.810Z,9.80
2023-05-06T07:10:29.928Z,9.80
2023-05-06T07:12:58.323Z,9.80
2023-05-06T07:15:25.779Z,9.80
2023-05-06T07:17:52.883Z,9.70
2023-05-06T07:20:19.931Z,9.80
2023-05-06T07:22:47.001Z,9.80
2023-05-06T07:25:14.564Z,9.70
2023-05-06T07:27:41.604Z,9.80
2023-05-06T07:30:08.986Z,9.80
2023-05-06T07:32:36.353Z,9.80
2023-05-06T07:35:03.810Z,9.80
2023-05-06T07:37:30.982Z,9.80
2023-05-06T07:39:58.372Z,9.80
2023-05-06T07:42:25.596Z,9.80
2023-05-06T07:44:52.580Z,9.80
2023-05-06T07:47:28.308Z,9.80
2023-05-06T07:49:56.249Z,9.80
2023-05-06T07:52:27.436Z,9.80
2023-05-06T07:54:54.514Z,9.80
2023-05-06T07:57:21.556Z,9.80
2023-05-06T07:59:50.792Z,9.80
2023-05-06T08:02:18.624Z,9.80
2023-05-06T08:04:46.612Z,9.80
2023-05-06T08:07:14.900Z,9.90
2023-05-06T08:09:41.979Z,9.90
2023-05-06T08:12:09.877Z,9.90
2023-05-06T08:14:36.980Z,9.90
2023-05-06T08:17:04.064Z,9.90
2023-05-06T08:19:31.101Z,10.00
2023-05-06T08:21:58.092Z,10.00
2023-05-06T08:24:25.096Z,10.00
2023-05-06T08:26:52.083Z,10.00
2023-05-06T08:29:19.360Z,10.00
2023-05-06T08:31:47.164Z,10.00
2023-05-06T08:34:14.640Z,10.00
2023-05-06T08:36:41.624Z,9.90
2023-05-06T08:39:08.636Z,9.90
2023-05-06T08:41:39.838Z,9.90
2023-05-06T08:44:08.299Z,10.00
2023-05-06T08:46:35.836Z,10.00
2023-05-06T08:49:03.137Z,10.00
2023-05-06T08:51:31.905Z,10.00
2023-05-06T08:54:02.564Z,10.00
2023-05-06T08:56:33.294Z,10.00
2023-05-06T08:59:01.392Z,10.00
2023-05-06T09:01:29.259Z,10.00
2023-05-06T09:03:58.076Z,10.00
2023-05-06T09:06:25.300Z,10.00
2023-05-06T09:08:52.624Z,10.00
2023-05-06T09:11:30.081Z,10.00
2023-05-06T09:14:17.301Z,10.00
2023-05-06T09:16:47.089Z,10.00
2023-05-06T09:19:15.162Z,10.00
2023-05-06T09:21:44.943Z,10.00
2023-05-06T09:24:13.935Z,9.90
2023-05-06T09:26:42.505Z,9.90
2023-05-06T09:29:09.936Z,9.90
2023-05-06T09:31:55.196Z,9.90
2023-05-06T09:34:22.805Z,9.90
2023-05-06T09:36:49.780Z,9.90
2023-05-06T09:39:16.783Z,9.90
2023-05-06T09:41:43.816Z,9.90
2023-05-06T09:44:12.196Z,9.90
2023-05-06T09:46:40.846Z,9.90
2023-05-06T09:49:08.358Z,9.90
2023-05-06T09:51:36.423Z,9.90
2023-05-06T09:54:04.423Z,9.90
2023-05-06T09:56:31.870Z,9.80
2023-05-06T09:59:01.419Z,9.80
2023-05-06T10:01:36.686Z,9.80
2023-05-06T10:04:08.344Z,9.80
2023-05-06T10:06:39.764Z,9.80
2023-05-06T10:09:09.265Z,9.80
2023-05-06T10:11:36.569Z,9.80
2023-05-06T10:14:05.281Z,9.80
2023-05-06T10:16:35.887Z,9.80
2023-05-06T10:19:05.049Z,9.70
2023-05-06T10:21:35.928Z,9.70
2023-05-06T10:24:09.164Z,9.70
2023-05-06T10:26:38.233Z,9.70
2023-05-06T10:29:10.068Z,9.70
2023-05-06T10:31:48.373Z,9.70
2023-05-06T10:34:17.409Z,9.80
2023-05-06T10:36:46.083Z,9.70
2023-05-06T10:39:14.326Z,9.80
2023-05-06T10:41:41.776Z,9.80
2023-05-06T10:44:10.168Z,9.80
2023-05-06T10:46:59.780Z,9.80
2023-05-06T10:49:27.722Z,9.90
2023-05-06T10:52:14.913Z,9.90
2023-05-06T10:54:50.311Z,9.90
2023-05-06T10:57:17.878Z,10.00
2023-05-06T10:59:47.027Z,10.10
2023-05-06T11:02:16.790Z,10.10
2023-05-06T11:04:51.051Z,10.10
2023-05-06T11:07:23.614Z,10.10
2023-05-06T11:10:02.134Z,10.10
2023-05-06T11:12:53.729Z,10.10
2023-05-06T11:15:40.532Z,10.10
2023-05-06T11:18:29.511Z,10.10
2023-05-06T11:21:02.752Z,10.10
2023-05-06T11:23:46.891Z,10.10
2023-05-06T11:26:14.844Z,10.20
2023-05-06T11:28:50.522Z,10.10
2023-05-06T11:31:18.128Z,10.10
2023-05-06T11:33:49.681Z,10.10
2023-05-06T11:36:18.523Z,10.10
2023-05-06T11:38:52.915Z,10.10
2023-05-06T11:41:22.690Z,10.10
2023-05-06T11:43:51.695Z,10.10
2023-05-06T11:46:20.035Z,10.20
2023-05-06T11:48:47.304Z,10.20
2023-05-06T11:51:14.708Z,10.20
2023-05-06T11:53:41.758Z,10.30
2023-05-06T11:56:08.982Z,10.30
2023-05-06T11:58:35.987Z,10.30
2023-05-06T12:01:04.514Z,10.40
2023-05-06T12:03:33.561Z,10.50
2023-05-06T12:06:01.149Z,10.50
2023-05-06T12:08:32.299Z,10.50
2023-05-06T12:11:02.208Z,10.50
2023-05-06T12:13:30.067Z,10.60
2023-05-06T12:15:59.363Z,10.60
2023-05-06T12:18:27.628Z,10.60
2023-05-06T12:20:55.495Z,10.60
2023-05-06T12:23:22.556Z,10.50
2023-05-06T12:26:04.213Z,10.50
2023-05-06T12:28:32.864Z,10.50
2023-05-06T12:31:17.532Z,10.50
2023-05-06T12:33:46.498Z,10.50
2023-05-06T12:36:13.786Z,10.50
2023-05-06T12:38:54.368Z,10.50
2023-05-06T12:41:22.574Z,10.40
2023-05-06T12:43:49.647Z,10.40
2023-05-06T12:46:17.297Z,10.40
2023-05-06T12:49:03.808Z,10.40
2023-05-06T12:51:31.190Z,10.40
2023-05-06T12:53:58.354Z,10.30
2023-05-06T12:56:25.604Z,10.40
2023-05-06T12:58:59.590Z,10.30
2023-05-06T13:01:26.895Z,10.30
2023-05-06T13:03:56.134Z,10.20
2023-05-06T13:06:23.352Z,10.20
2023-05-06T13:08:50.533Z,10.20
2023-05-06T13:11:17.580Z,10.20
2023-05-06T13:13:44.656Z,10.20
2023-05-06T13:16:11.969Z,10.20
2023-05-06T13:18:39.086Z,10.20
2023-05-06T13:21:06.188Z,10.30
2023-05-06T13:23:35.163Z,10.30
2023-05-06T13:26:06.003Z,10.30
2023-05-06T13:28:36.806Z,10.40
2023-05-06T13:31:04.181Z,10.40
2023-05-06T13:33:31.428Z,10.40
2023-05-06T13:35:58.453Z,10.40
2023-05-06T13:38:25.424Z,10.40
2023-05-06T13:40:53.823Z,10.40
2023-05-06T13:43:21.877Z,10.40
2023-05-06T13:45:49.030Z,10.40
2023-05-06T13:48:16.169Z,10.40
2023-05-06T13:50:47.393Z,10.40
2023-05-06T13:53:15.150Z,10.50
2023-05-06T13:55:43.193Z,10.50
2023-05-06T13:58:11.011Z,10.50
2023-05-06T14:00:38.457Z,10.50
2023-05-06T14:03:05.771Z,10.50
2023-05-06T14:05:32.855Z,10.50
2023-05-06T14:08:00.020Z,10.50
2023-05-06T14:10:27.061Z,10.50
2023-05-06T14:12:54.096Z,10.50
2023-05-06T14:15:21.266Z,10.50
2023-05-06T14:17:48.336Z,10.50
2023-05-06T14:20:15.452Z,10.50
2023-05-06T14:22:42.633Z,10.50
2023-05-06T14:25:10.613Z,10.50
2023-05-06T14:27:37.832Z,10.40
2023-05-06T14:30:08.580Z,10.40
2023-05-06T14:32:36.417Z,10.40
2023-05-06T14:35:03.538Z,10.50
2023-05-06T14:37:30.706Z,10.50
2023-05-06T14:39:58.075Z,10.50
2023-05-06T14:42:25.089Z,10.50
2023-05-06T14:44:52.066Z,10.50
2023-05-06T14:47:19.223Z,10.50
2023-05-06T14:49:46.299Z,10.40
2023-05-06T14:52:13.332Z,10.40
2023-05-06T14:54:43.090Z,10.30
2023-05-06T14:57:11.346Z,10.30
2023-05-06T14:59:39.199Z,10.30
2023-05-06T15:02:08.632Z,10.30
2023-05-06T15:04:36.467Z,10.20
2023-05-06T15:07:03.729Z,10.20
2023-05-06T15:09:31.192Z,10.20
2023-05-06T15:11:58.381Z,10.10
2023-05-06T15:14:25.523Z,10.10
2023-05-06T15:16:58.979Z,10.10
2023-05-06T15:19:26.142Z,10.10
2023-05-06T15:21:53.147Z,10.10
2023-05-06T15:24:20.600Z,10.10
2023-05-06T15:26:47.651Z,10.10
2023-05-06T15:29:14.904Z,10.10
2023-05-06T15:31:44.559Z,10.10
2023-05-06T15:34:12.847Z,10.10
2023-05-06T15:36:44.335Z,10.10
2023-05-06T15:39:12.656Z,10.10
2023-05-06T15:41:39.677Z,10.10
2023-05-06T15:44:06.822Z,10.10
2023-05-06T15:46:34.024Z,10.10
2023-05-06T15:51:31.746Z,10.00
2023-05-06T15:53:58.736Z,10.10
2023-05-06T15:56:27.020Z,10.10
2023-05-06T15:58:55.315Z,10.10
2023-05-06T16:01:37.545Z,10.10
2023-05-06T16:04:09.597Z,10.10
2023-05-06T16:06:36.904Z,10.10
2023-05-06T16:09:04.324Z,10.10
2023-05-06T16:11:31.314Z,10.10
2023-05-06T16:13:58.537Z,10.00
2023-05-06T16:16:25.686Z,10.10
2023-05-06T16:18:52.788Z,10.00
2023-05-06T16:21:19.767Z,10.10
2023-05-06T16:23:46.837Z,10.00
2023-05-06T16:26:14.796Z,10.00
2023-05-06T16:28:41.926Z,10.00
2023-05-06T16:31:09.048Z,10.00
2023-05-06T16:33:36.115Z,10.00
2023-05-06T16:36:03.854Z,10.00
2023-05-06T16:38:30.834Z,10.00
2023-05-06T16:40:58.195Z,10.00
2023-05-06T16:43:25.236Z,10.00
2023-05-06T16:45:52.242Z,10.00
2023-05-06T16:48:19.385Z,10.00
2023-05-06T16:50:46.628Z,10.00
2023-05-06T16:53:13.913Z,10.00
2023-05-06T16:55:45.566Z,10.00
2023-05-06T16:58:12.566Z,9.90
2023-05-06T17:00:39.690Z,10.00
2023-05-06T17:03:06.932Z,9.90
2023-05-06T17:05:34.203Z,9.90
2023-05-06T17:08:03.541Z,9.90
2023-05-06T17:10:30.600Z,9.90
2023-05-06T17:12:58.604Z,9.90
2023-05-06T17:15:25.817Z,9.90
2023-05-06T17:17:54.093Z,9.90
2023-05-06T17:20:21.290Z,9.90
2023-05-06T17:22:48.573Z,9.90
2023-05-06T17:25:15.778Z,9.90
2023-05-06T17:27:43.110Z,9.90
2023-05-06T17:30:10.587Z,9.90
2023-05-06T17:32:38.755Z,9.90
2023-05-06T17:35:06.972Z,9.80
2023-05-06T17:37:34.911Z,9.80
2023-05-06T17:40:02.902Z,9.80
2023-05-06T17:42:30.519Z,9.70
2023-05-06T17:44:57.576Z,9.70
2023-05-06T17:47:24.751Z,9.70
2023-05-06T17:49:54.933Z,9.70
2023-05-06T17:52:23.770Z,9.70
2023-05-06T17:55:01.514Z,9.70
2023-05-06T17:57:37.987Z,9.70
2023-05-06T18:00:07.382Z,9.70
2023-05-06T18:02:39.055Z,9.70
2023-05-06T18:05:06.719Z,9.70
2023-05-06T18:07:35.676Z,9.70
2023-05-06T18:10:02.718Z,9.70
2023-05-06T18:12:30.466Z,9.70
2023-05-06T18:14:57.905Z,9.70
2023-05-06T18:17:24.976Z,9.70
2023-05-06T18:19:52.609Z,9.70
2023-05-06T18:22:19.742Z,9.70
2023-05-06T18:24:46.797Z,9.70
2023-05-06T18:27:13.833Z,9.70
2023-05-06T18:29:41.599Z,9.70
2023-05-06T18:32:08.867Z,9.70
2023-05-06T18:34:36.031Z,9.60
2023-05-06T18:37:03.838Z,9.60
2023-05-06T18:39:30.929Z,9.60
2023-05-06T18:41:57.976Z,9.60
2023-05-06T18:44:25.014Z,9.60
2023-05-06T18:46:51.995Z,9.60
2023-05-06T18:49:19.228Z,9.60
2023-05-06T18:51:46.263Z,9.60
2023-05-06T18:54:14.281Z,9.60
2023-05-06T18:56:43.653Z,9.60
2023-05-06T18:59:11.687Z,9.60
2023-05-06T19:01:38.873Z,9.50
2023-05-06T19:04:06.744Z,9.50
2023-05-06T19:06:34.730Z,9.60
2023-05-06T19:09:01.770Z,9.50
2023-05-06T19:11:28.795Z,9.50
2023-05-06T19:13:55.896Z,9.60
2023-05-06T19:16:23.027Z,9.60
2023-05-06T19:18:50.126Z,9.60
2023-05-06T19:21:18.692Z,9.60
2023-05-06T19:23:45.754Z,9.60
2023-05-06T19:26:14.021Z,9.50
2023-05-06T19:28:41.352Z,9.50
2023-05-06T19:31:11.868Z,9.50
2023-05-06T19:33:39.911Z,9.50
2023-05-06T19:36:07.422Z,9.50
2023-05-06T19:38:34.780Z,9.50
2023-05-06T19:41:02.193Z,9.50
2023-05-06T19:43:29.239Z,9.40
2023-05-06T19:45:56.470Z,9.40
2023-05-06T19:48:24.077Z,9.40
2023-05-06T19:50:53.927Z,9.40
2023-05-06T19:53:22.811Z,9.40
2023-05-06T19:55:50.115Z,9.40
2023-05-06T19:58:18.875Z,9.40
2023-05-06T20:00:46.048Z,9.40
2023-05-06T20:03:13.534Z,9.30
2023-05-06T20:05:41.295Z,9.30
2023-05-06T20:08:11.490Z,9.30
2023-05-06T20:10:38.910Z,9.30
2023-05-06T20:13:07.016Z,9.30
2023-05-06T20:15:35.833Z,9.30
2023-05-06T20:18:02.939Z,9.30
2023-05-06T20:20:36.227Z,9.30
2023-05-06T20:23:03.706Z,9.30
2023-05-06T20:25:31.208Z,9.30
2023-05-06T20:27:59.150Z,9.30
2023-05-06T20:30:26.816Z,9.30
2023-05-06T20:32:54.139Z,9.30
2023-05-06T20:35:21.228Z,9.30
2023-05-06T20:37:48.307Z,9.30
2023-05-06T20:40:15.369Z,9.30
2023-05-06T20:42:42.510Z,9.30
2023-05-06T20:45:09.998Z,9.30
2023-05-06T20:47:37.310Z,9.20
2023-05-06T20:50:04.649Z,9.20
2023-05-06T20:52:31.784Z,9.30
2023-05-06T20:54:58.856Z,9.30
2023-05-06T20:57:26.128Z,9.30
2023-05-06T20:59:53.132Z,9.20
2023-05-06T21:02:20.419Z,9.20
2023-05-06T21:04:47.555Z,9.30
2023-05-06T21:07:14.888Z,9.30
2023-05-06T21:09:41.885Z,9.30
2023-05-06T21:12:08.985Z,9.30
2023-05-06T21:14:36.012Z,9.30
2023-05-06T21:17:03.089Z,9.30
2023-05-06T21:19:30.085Z,9.40
2023-05-06T21:21:58.112Z,9.30
2023-05-06T21:24:25.075Z,9.30
2023-05-06T21:26:53.185Z,9.30
2023-05-06T21:29:21.356Z,9.30
2023-05-06T21:31:48.354Z,9.20
2023-05-06T21:34:15.355Z,9.20
2023-05-06T21:36:42.553Z,9.20
2023-05-06T21:39:13.896Z,9.20
2023-05-06T21:41:41.136Z,9.20
2023-05-06T21:44:09.364Z,9.20
2023-05-06T21:46:37.838Z,9.20
2023-05-06T21:49:05.202Z,9.30
2023-05-06T21:51:34.799Z,9.30
2023-05-06T21:54:02.322Z,9.30
2023-05-06T21:56:29.491Z,9.30
2023-05-06T21:58:56.719Z,9.20
2023-05-06T22:01:27.956Z,9.20
2023-05-06T22:03:55.293Z,9.30
2023-05-06T22:06:22.985Z,9.20
2023-05-06T22:08:50.051Z,9.30
2023-05-06T22:11:17.330Z,9.20
2023-05-06T22:13:44.391Z,9.30
2023-05-06T22:16:11.676Z,9.20
2023-05-06T22:18:41.612Z,9.20
2023-05-06T22:21:09.916Z,9.20
2023-05-06T22:23:37.791Z,9.20
2023-05-06T22:26:04.993Z,9.30
2023-05-06T22:28:32.111Z,9.20
2023-05-06T22:30:59.113Z,9.20
2023-05-06T22:33:27.044Z,9.20
2023-05-06T22:35:55.466Z,9.20
2023-05-06T22:38:22.710Z,9.20
2023-05-06T22:40:49.807Z,9.20
2023-05-06T22:43:16.779Z,9.20
2023-05-06T22:45:43.799Z,9.20
2023-05-06T22:48:11.360Z,9.20
2023-05-06T22:50:38.659Z,9.20
2023-05-06T22:53:14.496Z,9.20
2023-05-06T22:55:42.410Z,9.20
2023-05-06T22:58:09.532Z,9.20
2023-05-06T23:00:36.709Z,9.10
2023-05-06T23:03:03.877Z,9.20
2023-05-06T23:05:31.198Z,9.10
2023-05-06T23:07:58.140Z,9.10
2023-05-06T23:10:25.160Z,9.10
2023-05-06T23:12:52.219Z,9.10
2023-05-06T23:15:19.258Z,9.10
2023-05-06T23:17:46.320Z,9.10
2023-05-06T23:20:13.852Z,9.10
2023-05-06T23:22:40.901Z,9.10
2023-05-06T23:25:10.076Z,9.10
2023-05-06T23:27:42.611Z,9.10
2023-05-06T23:30:10.689Z,9.10
2023-05-06T23:32:38.265Z,9.10
2023-05-06T23:35:07.344Z,9.10
2023-05-06T23:37:34.707Z,9.10
2023-05-06T23:40:04.396Z,9.10
2023-05-06T23:42:31.525Z,9.10
2023-05-06T23:45:00.277Z,9.10
2023-05-06T23:47:27.427Z,9.10
2023-05-06T23:49:54.493Z,9.10
2023-05-06T23:52:21.535Z,9.10
2023-05-06T23:54:48.748Z,9.10
2023-05-06T23:57:15.742Z,9.10
2023-05-06T23:59:42.848Z,9.00
